Time;durP1;ratioP1;P1;durP2;ratioP2;P2;SDS_P1;SDS_P2;PMS_P1;PMS_P2;Temp;Humidity;BMP_temperature;BMP_pressure;BME280_temperature;BME280_humidity;BME280_pressure;Samples;Min_cycle;Max_cycle;Signal;HPM_P1;HPM_P2
2022/07/17 00:01:32;;;;;;;3.40;2.40;;;;;;;17.69;68.34;99589.34;109243;1276;23581;-58
2022/07/17 00:03:59;;;;;;;5.20;2.90;;;;;;;17.68;68.26;99594.86;109155;1276;139919;-58
2022/07/17 00:06:26;;;;;;;4.10;2.80;;;;;;;17.66;68.42;99600.96;109088;1278;22481;-58
2022/07/17 00:08:52;;;;;;;4.00;2.60;;;;;;;17.64;68.36;99603.46;109030;1277;140023;-58
2022/07/17 00:11:19;;;;;;;4.40;3.00;;;;;;;17.63;68.47;99599.89;109256;1276;22496;-57
2022/07/17 00:13:46;;;;;;;9.40;3.00;;;;;;;17.61;68.56;99596.86;109201;1276;23125;-58
2022/07/17 00:16:13;;;;;;;5.60;2.60;;;;;;;17.60;68.58;99596.66;107063;1277;139317;-57
2022/07/17 00:18:40;;;;;;;8.40;2.50;;;;;;;17.59;68.65;99600.13;104679;1279;22622;-56
2022/07/17 00:21:07;;;;;;;4.70;2.70;;;;;;;17.57;68.84;99597.73;109005;1276;138323;-57
2022/07/17 00:23:34;;;;;;;5.00;2.40;;;;;;;17.56;69.00;99597.42;109228;1276;22456;-57
2022/07/17 00:26:01;;;;;;;5.70;3.00;;;;;;;17.53;69.14;99590.96;109258;1276;22552;-57
2022/07/17 00:28:27;;;;;;;6.00;2.80;;;;;;;17.51;69.41;99590.29;109076;1276;138747;-57
2022/07/17 00:30:54;;;;;;;6.70;2.90;;;;;;;17.48;69.65;99585.98;109164;1276;22503;-57
2022/07/17 00:33:21;;;;;;;3.50;2.80;;;;;;;17.46;69.78;99579.73;109025;1276;138690;-58
2022/07/17 00:35:48;;;;;;;4.40;2.80;;;;;;;17.44;70.10;99576.64;109069;1277;22552;-58
2022/07/17 00:38:15;;;;;;;5.60;2.60;;;;;;;17.43;70.38;99573.96;109102;1276;137151;-59
2022/07/17 00:40:44;;;;;;;4.00;2.60;;;;;;;17.41;70.62;99571.23;106322;1276;22547;-58
2022/07/17 00:43:11;;;;;;;5.50;3.20;;;;;;;17.39;70.81;99559.64;109299;1276;22476;-58
2022/07/17 00:45:38;;;;;;;6.40;2.50;;;;;;;17.38;71.13;99560.27;108979;1276;138870;-59
2022/07/17 00:48:07;;;;;;;7.70;2.90;;;;;;;17.36;71.33;99571.42;109325;1276;22466;-59
2022/07/17 00:50:39;;;;;;;6.00;2.50;;;;;;;17.35;71.55;99581.80;109149;1275;138878;-58
2022/07/17 00:53:06;;;;;;;3.40;2.40;;;;;;;17.33;71.69;99585.02;109383;1277;22334;-59
2022/07/17 00:55:33;;;;;;;6.30;3.30;;;;;;;17.31;71.83;99587.20;109161;1276;23138;-58
2022/07/17 00:58:10;;;;;;;2.70;2.20;;;;;;;17.29;71.94;99581.48;109121;1276;138596;-58
2022/07/17 01:00:37;;;;;;;4.00;2.10;;;;;;;17.26;72.08;99567.19;109372;1275;22492;-58
2022/07/17 01:03:04;;;;;;;5.40;2.40;;;;;;;17.24;72.27;99559.79;109197;1276;138476;-56
2022/07/17 01:05:32;;;;;;;8.70;2.30;;;;;;;17.22;72.29;99561.69;109335;1276;22482;-58
2022/07/17 01:07:59;;;;;;;5.70;3.00;;;;;;;17.19;72.47;99568.28;109300;1275;22483;-59
2022/07/17 01:10:26;;;;;;;3.90;2.50;;;;;;;17.18;72.59;99571.60;109209;1274;138643;-58
2022/07/17 01:12:53;;;;;;;3.70;2.20;;;;;;;17.17;72.71;99566.50;109183;1276;22650;-58
2022/07/17 01:15:20;;;;;;;6.70;2.90;;;;;;;17.17;72.84;99556.71;109130;1276;139285;-58
2022/07/17 01:17:47;;;;;;;5.60;2.30;;;;;;;17.16;73.05;99558.63;109274;1276;22573;-58
2022/07/17 01:20:14;;;;;;;4.10;2.30;;;;;;;17.15;73.18;99549.31;109160;1275;138279;-59
2022/07/17 01:22:46;;;;;;;4.40;2.80;;;;;;;17.14;73.43;99547.52;109334;1276;22452;-59
2022/07/17 01:25:13;;;;;;;4.70;2.70;;;;;;;17.13;73.35;99550.13;109324;1276;22444;-59
2022/07/17 01:27:40;;;;;;;4.00;2.70;;;;;;;17.12;73.56;99550.52;109262;1276;139161;-59
2022/07/17 01:30:08;;;;;;;2.80;2.60;;;;;;;17.11;73.61;99552.29;109358;1277;22465;-57
2022/07/17 01:32:39;;;;;;;3.60;2.60;;;;;;;17.11;73.77;99549.66;109172;1274;138988;-57
2022/07/17 01:35:07;;;;;;;3.00;2.40;;;;;;;17.08;73.88;99546.61;109317;1276;22408;-57
2022/07/17 01:37:33;;;;;;;4.30;2.40;;;;;;;17.08;74.03;99546.77;109409;1277;22550;-57
2022/07/17 01:40:00;;;;;;;6.60;2.50;;;;;;;17.07;74.12;99546.67;107591;1276;140500;-57
2022/07/17 01:42:27;;;;;;;4.00;2.50;;;;;;;17.05;74.21;99546.27;104919;1277;22989;-56
2022/07/17 01:44:54;;;;;;;5.20;2.80;;;;;;;17.03;74.32;99545.98;104944;1278;138792;-56
2022/07/17 01:47:21;;;;;;;6.20;2.80;;;;;;;17.00;74.39;99548.01;104918;1276;24300;-55
2022/07/17 01:49:53;;;;;;;4.80;3.20;;;;;;;17.00;74.51;99559.31;105078;1274;22557;-56
2022/07/17 01:52:20;;;;;;;6.80;3.20;;;;;;;16.98;74.49;99557.63;104918;1277;138886;-56
2022/07/17 01:54:46;;;;;;;4.50;3.00;;;;;;;16.96;74.73;99557.05;104808;1277;24284;-57
2022/07/17 01:57:13;;;;;;;3.50;2.60;;;;;;;16.94;74.85;99554.54;104927;1277;138855;-59
2022/07/17 01:59:41;;;;;;;3.70;2.70;;;;;;;16.92;75.04;99555.95;109261;1276;22502;-59
2022/07/17 02:02:08;;;;;;;4.00;2.70;;;;;;;16.89;75.19;99557.20;109216;1276;139987;-59
2022/07/17 02:04:35;;;;;;;4.20;2.60;;;;;;;16.87;75.22;99563.15;109207;1276;22422;-59
2022/07/17 02:07:03;;;;;;;3.50;2.60;;;;;;;16.84;75.48;99563.13;109183;1276;22513;-59
2022/07/17 02:09:30;;;;;;;5.30;3.20;;;;;;;16.82;75.65;99565.58;109045;1276;138713;-59
2022/07/17 02:11:56;;;;;;;8.10;2.90;;;;;;;16.79;75.71;99563.73;109205;1276;22456;-59
2022/07/17 02:14:23;;;;;;;4.60;2.70;;;;;;;16.78;75.86;99568.44;109060;1276;139638;-59
2022/07/17 02:16:50;;;;;;;3.90;2.80;;;;;;;16.76;76.09;99557.95;109171;1276;22527;-59
2022/07/17 02:19:17;;;;;;;4.40;2.60;;;;;;;16.74;76.12;99548.33;109207;1276;22382;-59
2022/07/17 02:21:44;;;;;;;11.90;3.20;;;;;;;16.72;76.26;99552.02;109130;1277;138360;-59
2022/07/17 02:24:10;;;;;;;5.00;2.70;;;;;;;16.72;76.47;99556.70;109216;1277;22599;-59
2022/07/17 02:26:37;;;;;;;6.80;3.00;;;;;;;16.72;76.58;99549.23;109037;1277;138412;-58
2022/07/17 02:29:04;;;;;;;4.30;3.10;;;;;;;16.72;76.73;99539.00;109243;1277;23282;-59
2022/07/17 02:31:31;;;;;;;3.80;2.90;;;;;;;16.72;76.83;99536.95;109161;1277;22596;-59
2022/07/17 02:33:58;;;;;;;3.60;2.60;;;;;;;16.71;76.87;99540.27;109127;1276;139846;-59
2022/07/17 02:36:25;;;;;;;6.20;2.90;;;;;;;16.71;77.04;99544.17;109255;1276;22425;-59
2022/07/17 02:38:52;;;;;;;3.70;2.90;;;;;;;16.71;77.03;99547.10;109139;1277;138562;-58
2022/07/17 02:41:19;;;;;;;7.80;3.80;;;;;;;16.70;77.20;99557.27;109274;1276;22270;-59
2022/07/17 02:43:46;;;;;;;6.00;3.00;;;;;;;16.69;77.24;99552.84;109289;1277;22438;-59
2022/07/17 02:46:13;;;;;;;4.00;3.30;;;;;;;16.70;77.28;99548.60;109162;1277;138392;-59
2022/07/17 02:48:41;;;;;;;6.10;3.40;;;;;;;16.69;77.33;99535.06;109213;1277;22436;-59
2022/07/17 02:51:08;;;;;;;6.30;3.00;;;;;;;16.69;77.37;99525.38;109100;1277;138708;-58
2022/07/17 02:53:35;;;;;;;6.20;3.00;;;;;;;16.68;77.34;99526.17;109266;1277;23212;-58
2022/07/17 02:56:02;;;;;;;5.30;3.20;;;;;;;16.67;77.34;99532.07;109187;1277;22484;-58
2022/07/17 02:58:29;;;;;;;7.00;3.40;;;;;;;16.66;77.39;99540.11;109109;1277;137920;-58
2022/07/17 03:00:55;;;;;;;6.20;3.10;;;;;;;16.65;77.52;99542.81;109215;1276;22620;-58
2022/07/17 03:03:22;;;;;;;7.10;3.40;;;;;;;16.65;77.53;99537.15;109032;1276;138072;-58
2022/07/17 03:05:50;;;;;;;6.30;4.00;;;;;;;16.65;77.63;99529.73;109251;1276;22397;-58
2022/07/17 03:08:16;;;;;;;5.00;3.10;;;;;;;16.64;77.39;99535.58;109161;1276;138318;-58
2022/07/17 03:10:43;;;;;;;4.70;3.00;;;;;;;16.63;77.45;99541.19;109275;1277;22515;-58
2022/07/17 03:13:10;;;;;;;5.90;3.00;;;;;;;16.63;77.36;99552.27;109254;1277;23121;-58
2022/07/17 03:15:37;;;;;;;8.90;4.50;;;;;;;16.63;77.34;99541.46;109218;1276;138121;-59
2022/07/17 03:18:04;;;;;;;6.80;3.40;;;;;;;16.61;77.22;99524.40;109265;1277;22365;-59
2022/07/17 03:20:30;;;;;;;7.30;4.00;;;;;;;16.61;77.02;99534.30;109085;1277;138654;-59
2022/07/17 03:22:57;;;;;;;7.50;3.90;;;;;;;16.61;76.59;99556.20;109192;1277;22414;-59
2022/07/17 03:25:24;;;;;;;9.10;3.70;;;;;;;16.61;76.54;99552.85;109152;1277;22465;-59
2022/07/17 03:27:51;;;;;;;11.60;3.80;;;;;;;16.62;76.44;99551.09;109102;1276;140289;-58
2022/07/17 03:30:17;;;;;;;7.90;3.90;;;;;;;16.63;76.41;99554.29;109161;1277;22484;-59
2022/07/17 03:32:44;;;;;;;7.60;4.30;;;;;;;16.64;76.23;99546.19;109156;1277;139439;-59
2022/07/17 03:35:11;;;;;;;9.60;3.40;;;;;;;16.65;76.27;99540.84;109319;1276;22522;-58
2022/07/17 03:37:38;;;;;;;10.50;4.50;;;;;;;16.64;76.19;99537.22;109245;1277;22657;-59
2022/07/17 03:40:06;;;;;;;7.20;4.00;;;;;;;16.62;76.18;99538.77;109254;1274;139893;-59
2022/07/17 03:42:33;;;;;;;10.30;3.90;;;;;;;16.61;76.23;99541.19;109304;1275;22547;-58
2022/07/17 03:44:59;;;;;;;6.20;3.50;;;;;;;16.59;76.39;99538.02;109216;1274;138237;-58
2022/07/17 03:47:26;;;;;;;7.10;3.90;;;;;;;16.57;76.52;99536.59;109320;1276;22501;-58
2022/07/17 03:49:53;;;;;;;6.40;3.00;;;;;;;16.56;76.57;99540.34;109264;1277;22411;-58
2022/07/17 03:52:20;;;;;;;7.30;3.10;;;;;;;16.54;76.35;99539.89;109093;1276;139691;-58
2022/07/17 03:54:46;;;;;;;5.10;3.20;;;;;;;16.53;76.25;99541.86;109372;1276;22471;-58
2022/07/17 03:57:13;;;;;;;4.70;3.40;;;;;;;16.52;76.30;99542.54;109172;1276;138757;-58
2022/07/17 03:59:40;;;;;;;7.10;3.50;;;;;;;16.54;76.18;99539.65;109391;1276;23140;-58
2022/07/17 04:02:07;;;;;;;3.80;2.90;;;;;;;16.55;76.11;99538.21;109255;1276;22464;-58
2022/07/17 04:04:34;;;;;;;7.10;4.30;;;;;;;16.57;76.38;99540.16;109263;1277;23423;-58
2022/07/17 04:07:03;;;;;;;6.20;3.20;;;;;;;16.60;76.58;99534.98;109355;1276;22615;-58
2022/07/17 04:09:29;;;;;;;9.20;4.40;;;;;;;16.61;76.49;99540.05;109169;1277;138073;-58
2022/07/17 04:11:56;;;;;;;5.30;3.50;;;;;;;16.65;76.41;99537.81;109276;1274;22549;-58
2022/07/17 04:14:23;;;;;;;6.50;3.70;;;;;;;16.67;76.09;99540.66;109110;1276;139232;-58
2022/07/17 04:16:50;;;;;;;7.70;3.70;;;;;;;16.70;76.02;99544.69;109347;1276;22501;-58
2022/07/17 04:19:16;;;;;;;9.90;3.40;;;;;;;16.74;75.99;99546.66;109260;1276;23031;-58
2022/07/17 04:21:44;;;;;;;6.30;3.40;;;;;;;16.78;75.98;99545.16;109255;1274;138455;-58
2022/07/17 04:24:11;;;;;;;7.90;3.70;;;;;;;16.83;75.79;99544.70;109350;1275;23240;-58
2022/07/17 04:26:38;;;;;;;5.80;3.30;;;;;;;16.88;75.65;99547.60;109267;1275;138351;-58
2022/07/17 04:29:05;;;;;;;9.00;3.60;;;;;;;16.94;75.32;99548.27;109325;1276;22551;-59
2022/07/17 04:31:32;;;;;;;8.00;3.30;;;;;;;17.01;74.78;99549.10;109341;1275;23240;-58
2022/07/17 04:33:59;;;;;;;8.60;3.20;;;;;;;17.08;74.25;99548.92;109087;1277;138033;-58
2022/07/17 04:36:25;;;;;;;7.70;3.20;;;;;;;17.15;73.84;99544.84;109287;1276;23188;-58
2022/07/17 04:38:52;;;;;;;8.00;3.20;;;;;;;17.23;73.73;99541.52;109218;1275;139198;-58
2022/07/17 04:41:19;;;;;;;4.20;3.10;;;;;;;17.30;73.30;99537.81;105343;1277;24330;-58
2022/07/17 04:43:46;;;;;;;6.80;4.00;;;;;;;17.38;72.77;99533.05;105010;1277;22673;-58
2022/07/17 04:46:12;;;;;;;7.30;3.00;;;;;;;17.45;72.19;99525.55;104673;1277;138085;-57
2022/07/17 04:48:39;;;;;;;4.60;2.50;;;;;;;17.54;71.09;99528.42;105023;1276;25153;-57
2022/07/17 04:51:06;;;;;;;4.30;2.40;;;;;;;17.62;69.75;99533.73;104889;1276;138608;-58
2022/07/17 04:53:33;;;;;;;4.80;2.60;;;;;;;17.72;69.42;99536.83;105111;1274;22713;-58
2022/07/17 04:56:00;;;;;;;3.50;1.80;;;;;;;17.79;69.24;99538.21;104966;1277;22661;-58
2022/07/17 04:58:27;;;;;;;2.80;2.10;;;;;;;17.86;68.57;99535.55;104927;1277;138512;-58
2022/07/17 05:00:54;;;;;;;4.90;2.30;;;;;;;17.95;68.08;99537.02;104968;1277;22669;-58
2022/07/17 05:03:20;;;;;;;2.50;2.00;;;;;;;18.02;67.66;99542.84;104964;1277;139327;-58
2022/07/17 05:05:47;;;;;;;4.90;2.30;;;;;;;18.08;66.23;99539.02;104992;1277;22566;-58
2022/07/17 05:08:14;;;;;;;4.50;2.90;;;;;;;18.16;65.00;99533.29;104823;1277;137518;-59
2022/07/17 05:10:41;;;;;;;3.30;2.00;;;;;;;18.25;64.48;99539.71;104950;1277;25437;-58
2022/07/17 05:13:08;;;;;;;4.90;2.00;;;;;;;18.33;64.17;99544.39;104924;1275;23699;-58
2022/07/17 05:15:35;;;;;;;5.30;2.00;;;;;;;18.41;63.59;99546.93;104932;1277;137436;-59
2022/07/17 05:18:07;;;;;;;4.00;2.50;;;;;;;18.46;63.26;99546.82;105007;1278;24179;-58
2022/07/17 05:20:34;;;;;;;3.70;2.60;;;;;;;18.49;62.46;99540.73;104930;1277;139114;-58
2022/07/17 05:23:01;;;;;;;12.00;2.90;;;;;;;18.48;62.14;99540.47;105039;1277;22780;-59
2022/07/17 05:25:27;;;;;;;3.00;2.10;;;;;;;18.48;61.86;99535.56;105076;1277;22833;-58
2022/07/17 05:27:54;;;;;;;3.30;1.90;;;;;;;18.48;61.65;99536.02;104914;1277;137352;-59
2022/07/17 05:30:21;;;;;;;2.80;2.30;;;;;;;18.48;61.23;99529.95;104973;1277;25433;-59
2022/07/17 05:32:48;;;;;;;4.60;2.60;;;;;;;18.49;61.12;99520.94;104812;1277;137641;-58
2022/07/17 05:35:14;;;;;;;3.80;2.40;;;;;;;18.49;60.88;99519.70;105062;1274;22574;-59
2022/07/17 05:37:41;;;;;;;7.40;2.50;;;;;;;18.50;60.86;99515.55;104920;1277;22796;-59
2022/07/17 05:40:08;;;;;;;5.60;2.20;;;;;;;18.52;60.73;99521.41;104874;1274;138476;-59
2022/07/17 05:42:35;;;;;;;5.70;2.40;;;;;;;18.56;60.71;99529.49;104927;1277;24024;-60
2022/07/17 05:45:03;;;;;;;3.50;2.00;;;;;;;18.61;60.33;99538.68;104879;1277;139120;-59
2022/07/17 05:47:30;;;;;;;6.50;2.30;;;;;;;18.64;59.98;99541.08;104961;1277;22552;-59
2022/07/17 05:49:57;;;;;;;3.20;2.00;;;;;;;18.65;59.39;99538.08;105029;1277;22743;-59
2022/07/17 05:52:24;;;;;;;4.60;2.40;;;;;;;18.63;58.55;99539.67;109195;1275;137534;-58
2022/07/17 05:54:51;;;;;;;3.50;2.00;;;;;;;18.58;57.91;99541.67;109308;1276;22471;-59
2022/07/17 05:57:17;;;;;;;3.20;2.10;;;;;;;18.52;58.03;99544.38;109239;1276;138163;-58
2022/07/17 05:59:44;;;;;;;6.20;2.10;;;;;;;18.47;58.26;99547.51;109329;1274;22454;-58
2022/07/17 06:02:11;;;;;;;3.30;2.50;;;;;;;18.43;58.76;99551.20;109139;1277;139907;-58
2022/07/17 06:04:38;;;;;;;5.70;2.40;;;;;;;18.39;58.76;99554.70;109223;1276;22541;-58
2022/07/17 06:07:05;;;;;;;4.00;2.40;;;;;;;18.33;58.99;99561.93;109336;1275;22550;-58
2022/07/17 06:09:32;;;;;;;3.10;2.00;;;;;;;18.27;59.67;99563.11;109172;1276;137616;-58
2022/07/17 06:11:58;;;;;;;2.90;2.40;;;;;;;18.24;60.21;99565.11;109247;1276;22506;-58
2022/07/17 06:14:25;;;;;;;4.30;2.10;;;;;;;18.20;59.97;99563.60;109111;1276;138442;-58
2022/07/17 06:16:52;;;;;;;6.70;2.20;;;;;;;18.14;60.08;99563.45;109294;1275;23349;-58
2022/07/17 06:19:20;;;;;;;7.90;3.00;;;;;;;18.10;60.46;99570.70;109249;1276;22419;-59
2022/07/17 06:21:47;;;;;;;6.70;2.30;;;;;;;18.08;60.71;99570.11;109160;1276;138059;-58
2022/07/17 06:24:14;;;;;;;4.20;2.30;;;;;;;18.07;60.79;99578.58;109415;1276;23058;-59
2022/07/17 06:26:41;;;;;;;4.60;2.00;;;;;;;18.05;60.81;99575.91;109269;1277;138533;-58
2022/07/17 06:29:08;;;;;;;4.60;2.30;;;;;;;18.03;60.79;99584.11;109281;1277;22503;-58
2022/07/17 06:31:34;;;;;;;9.40;2.50;;;;;;;18.00;59.60;99590.63;109212;1277;23609;-58
2022/07/17 06:34:01;;;;;;;3.80;2.10;;;;;;;17.92;59.52;99593.63;109069;1276;137446;-58
2022/07/17 06:36:28;;;;;;;2.90;2.10;;;;;;;17.83;59.50;99594.10;109261;1277;22474;-58
2022/07/17 06:38:55;;;;;;;3.20;2.00;;;;;;;17.71;59.69;99600.78;109203;1276;139005;-58
2022/07/17 06:41:22;;;;;;;4.70;2.30;;;;;;;17.58;59.30;99606.26;109278;1276;22459;-58
2022/07/17 06:43:48;;;;;;;5.00;1.90;;;;;;;17.41;59.36;99614.64;109287;1275;22416;-59
2022/07/17 06:46:15;;;;;;;3.60;2.00;;;;;;;17.24;59.70;99630.17;109210;1277;138762;-60
2022/07/17 06:48:42;;;;;;;2.90;1.70;;;;;;;17.11;60.28;99636.31;109296;1276;22490;-60
2022/07/17 06:51:09;;;;;;;4.70;1.80;;;;;;;17.03;60.32;99641.83;109174;1274;137802;-60
2022/07/17 06:53:36;;;;;;;4.10;2.00;;;;;;;16.92;60.38;99640.83;109304;1276;22660;-59
2022/07/17 06:56:03;;;;;;;4.30;1.60;;;;;;;16.81;60.28;99634.77;109289;1275;22506;-60
2022/07/17 06:58:30;;;;;;;4.50;1.50;;;;;;;16.69;60.39;99643.03;109196;1276;137116;-60
2022/07/17 07:00:56;;;;;;;3.00;1.50;;;;;;;16.58;60.76;99651.65;109201;1276;22447;-60
2022/07/17 07:03:23;;;;;;;2.50;1.70;;;;;;;16.47;61.09;99653.16;109293;1275;137807;-59
2022/07/17 07:05:50;;;;;;;5.00;1.60;;;;;;;16.40;61.82;99651.83;109335;1275;23277;-59
2022/07/17 07:08:17;;;;;;;3.20;2.00;;;;;;;16.35;62.13;99653.42;109229;1276;138622;-60
2022/07/17 07:10:44;;;;;;;3.90;1.60;;;;;;;16.28;62.65;99658.40;109244;1276;22569;-57
2022/07/17 07:13:12;;;;;;;5.20;2.20;;;;;;;16.20;63.08;99661.77;109200;1274;23133;-59
2022/07/17 07:15:39;;;;;;;3.50;1.70;;;;;;;16.16;63.54;99665.02;109089;1276;139179;-60
2022/07/17 07:18:06;;;;;;;3.60;1.60;;;;;;;16.15;63.89;99667.39;109312;1275;22435;-59
2022/07/17 07:20:33;;;;;;;3.60;1.40;;;;;;;16.13;63.86;99668.96;109165;1276;138346;-59
2022/07/17 07:23:00;;;;;;;9.10;1.90;;;;;;;16.06;63.69;99672.98;109188;1276;22487;-59
2022/07/17 07:25:33;;;;;;;2.50;1.40;;;;;;;16.01;63.74;99669.67;109187;1275;22458;-59
2022/07/17 07:28:02;;;;;;;3.80;1.60;;;;;;;15.95;64.04;99665.84;109161;1275;139175;-59
2022/07/17 07:30:29;;;;;;;4.90;1.60;;;;;;;15.86;64.32;99668.66;109187;1276;23222;-59
2022/07/17 07:32:56;;;;;;;2.60;1.60;;;;;;;15.77;64.62;99670.45;109182;1275;138420;-59
2022/07/17 07:35:23;;;;;;;3.40;1.70;;;;;;;15.71;64.90;99664.02;109166;1276;23021;-59
2022/07/17 07:37:50;;;;;;;3.00;1.70;;;;;;;15.64;65.24;99660.46;109306;1275;22436;-59
2022/07/17 07:40:16;;;;;;;4.10;1.30;;;;;;;15.63;65.40;99659.86;107037;1277;138560;-59
2022/07/17 07:42:43;;;;;;;2.30;1.40;;;;;;;15.61;66.08;99662.79;104933;1277;25265;-59
2022/07/17 07:45:10;;;;;;;4.20;1.40;;;;;;;15.62;66.78;99670.69;104865;1277;138880;-58
2022/07/17 07:47:44;;;;;;;3.50;1.70;;;;;;;15.62;66.95;99669.92;105058;1277;25466;-59
2022/07/17 07:50:11;;;;;;;3.40;1.70;;;;;;;15.60;66.96;99674.55;109120;1276;138370;-59
2022/07/17 07:52:38;;;;;;;3.50;2.00;;;;;;;15.53;67.35;99674.14;109213;1275;23269;-58
2022/07/17 07:55:06;;;;;;;2.30;1.50;;;;;;;15.48;67.85;99675.49;109182;1276;22443;-58
2022/07/17 07:57:32;;;;;;;4.80;2.40;;;;;;;15.44;68.22;99674.52;109144;1276;138596;-58
2022/07/17 07:59:59;;;;;;;2.50;1.80;;;;;;;15.40;68.41;99676.34;109298;1276;22550;-58
2022/07/17 08:05:09;;;;;;;3.40;2.10;;;;;;;15.39;68.57;99666.39;101887;1309;545216;-58
2022/07/17 08:07:36;;;;;;;4.80;1.80;;;;;;;15.38;68.54;99668.00;104106;1284;22730;-58
2022/07/17 08:10:04;;;;;;;4.80;2.50;;;;;;;15.41;68.61;99668.42;103786;1286;137046;-58
2022/07/17 08:12:31;;;;;;;3.40;2.30;;;;;;;15.44;69.18;99667.84;108022;1287;23006;-58
2022/07/17 08:15:12;;;;;;;4.80;2.40;;;;;;;15.56;69.33;99673.64;107791;1287;137857;-58
2022/07/17 08:17:39;;;;;;;3.40;2.40;;;;;;;15.67;69.16;99668.46;107728;1288;238894;-59
2022/07/17 08:20:07;;;;;;;4.40;1.80;;;;;;;15.80;68.53;99671.14;108095;1285;22464;-58
2022/07/17 08:22:43;;;;;;;3.00;1.40;;;;;;;15.90;68.13;99670.05;108274;1286;22543;-58
2022/07/17 08:25:30;;;;;;;2.60;1.50;;;;;;;16.00;67.29;99668.98;108297;1285;23303;-59
2022/07/17 08:27:57;;;;;;;4.50;2.20;;;;;;;16.09;66.93;99667.56;108103;1287;138256;-59
2022/07/17 08:30:24;;;;;;;4.60;1.80;;;;;;;16.18;66.53;99669.17;108174;1285;22573;-57
2022/07/17 08:32:50;;;;;;;2.50;1.50;;;;;;;16.25;66.15;99673.77;108279;1284;141590;-57
2022/07/17 08:35:17;;;;;;;2.40;1.40;;;;;;;16.25;65.57;99665.20;108189;1287;22464;-58
2022/07/17 08:37:46;;;;;;;2.00;1.10;;;;;;;16.27;66.15;99663.64;108326;1285;22483;-59
2022/07/17 08:40:33;;;;;;;2.80;1.50;;;;;;;16.33;64.84;99666.75;108114;1286;138532;-57
2022/07/17 08:43:00;;;;;;;2.60;1.20;;;;;;;16.39;63.87;99663.56;108200;1286;23356;-57
2022/07/17 08:45:27;;;;;;;1.70;1.30;;;;;;;16.46;63.45;99667.70;108232;1285;140161;-57
2022/07/17 08:47:54;;;;;;;3.90;1.50;;;;;;;16.52;62.99;99667.25;108195;1285;22487;-57
2022/07/17 08:50:33;;;;;;;3.30;1.60;;;;;;;16.60;62.87;99666.88;108162;1286;137160;-57
2022/07/17 08:53:00;;;;;;;2.10;1.30;;;;;;;16.69;62.12;99666.14;108459;1285;22563;-57
2022/07/17 08:55:28;;;;;;;1.50;1.30;;;;;;;16.74;61.93;99666.61;108418;1285;22461;-56
2022/07/17 08:57:55;;;;;;;2.90;1.30;;;;;;;16.77;61.07;99658.26;108393;1286;22562;-57
2022/07/17 09:00:23;;;;;;;4.20;1.20;;;;;;;16.79;61.27;99657.23;108282;1286;22465;-57
2022/07/17 09:02:59;;;;;;;3.50;1.40;;;;;;;16.85;60.11;99653.60;108349;1285;22522;-57
2022/07/17 09:05:31;;;;;;;3.50;1.70;;;;;;;16.91;59.76;99653.11;108281;1286;22286;-57
2022/07/17 09:07:58;;;;;;;4.90;1.70;;;;;;;17.00;60.20;99654.39;108404;1285;22605;-57
2022/07/17 09:10:32;;;;;;;2.90;1.40;;;;;;;17.10;58.50;99654.00;108421;1285;23104;-57
2022/07/17 09:13:00;;;;;;;1.40;1.00;;;;;;;17.21;57.57;99654.39;108471;1285;23071;-57
2022/07/17 09:15:27;;;;;;;2.00;1.00;;;;;;;17.30;57.54;99654.54;108291;1286;22390;-57
2022/07/17 09:17:55;;;;;;;2.10;0.90;;;;;;;17.39;56.12;99653.08;108347;1286;22548;-57
2022/07/17 09:20:22;;;;;;;1.10;0.80;;;;;;;17.47;54.32;99654.60;108271;1286;22589;-57
2022/07/17 09:22:59;;;;;;;1.60;1.10;;;;;;;17.51;53.04;99653.98;108455;1285;22511;-57
2022/07/17 09:25:39;;;;;;;2.10;1.00;;;;;;;17.55;50.95;99652.87;108219;1286;22538;-58
2022/07/17 09:28:07;;;;;;;1.50;1.10;;;;;;;17.58;50.16;99652.50;108275;1286;22582;-57
2022/07/17 09:30:35;;;;;;;3.60;1.20;;;;;;;17.62;50.49;99646.36;108360;1286;23133;-58
2022/07/17 09:33:04;;;;;;;1.20;0.80;;;;;;;17.67;50.96;99651.31;108204;1287;23278;-57
2022/07/17 09:35:31;;;;;;;1.10;0.80;;;;;;;17.71;50.75;99649.66;108311;1286;22426;-58
2022/07/17 09:37:58;;;;;;;2.90;1.00;;;;;;;17.75;51.42;99644.11;108391;1286;23246;-58
2022/07/17 09:43:13;;;;;;;1.10;0.90;;;;;;;17.90;51.32;99644.13;108380;1286;22467;-57
2022/07/17 09:45:40;;;;;;;1.20;1.00;;;;;;;17.95;50.24;99649.21;108387;1286;22471;-57
2022/07/17 09:48:07;;;;;;;1.30;1.00;;;;;;;17.93;50.72;99648.03;108385;1286;22468;-57
2022/07/17 09:50:33;;;;;;;1.80;1.00;;;;;;;17.91;50.77;99651.49;108236;1286;23159;-57
2022/07/17 09:53:00;;;;;;;1.30;0.80;;;;;;;17.88;51.31;99645.00;108256;1286;23205;-57
2022/07/17 09:55:29;;;;;;;1.20;1.00;;;;;;;17.90;51.53;99645.83;108222;1286;22509;-57
2022/07/17 09:58:14;;;;;;;1.00;0.90;;;;;;;17.93;51.56;99639.01;108402;1286;22772;-57
2022/07/17 10:00:41;;;;;;;1.30;1.00;;;;;;;17.94;52.22;99637.71;108279;1286;22430;-56
2022/07/17 10:03:08;;;;;;;1.30;0.90;;;;;;;18.00;52.58;99639.77;108260;1286;22515;-58
2022/07/17 10:05:35;;;;;;;4.70;1.20;;;;;;;18.10;53.37;99637.09;108260;1286;22495;-57
2022/07/17 10:08:09;;;;;;;2.60;1.20;;;;;;;18.22;54.29;99628.42;108071;1288;22462;-57
2022/07/17 10:10:36;;;;;;;4.90;2.00;;;;;;;18.35;53.53;99644.16;108106;1287;22597;-58
2022/07/17 10:13:02;;;;;;;1.10;1.00;;;;;;;18.47;53.16;99635.80;108172;1287;22463;-58
2022/07/17 10:15:29;;;;;;;1.80;1.10;;;;;;;18.56;52.46;99636.29;108153;1286;22471;-57
2022/07/17 10:18:05;;;;;;;5.40;1.60;;;;;;;18.60;52.77;99633.13;107989;1287;22545;-57
2022/07/17 10:20:33;;;;;;;2.50;2.00;;;;;;;18.69;53.28;99628.86;108175;1287;22891;-56
2022/07/17 10:22:59;;;;;;;10.60;3.00;;;;;;;18.78;53.25;99625.19;108136;1288;22520;-57
2022/07/17 10:25:26;;;;;;;1.40;1.20;;;;;;;18.87;53.00;99620.25;108240;1286;22506;-58
2022/07/17 10:27:55;;;;;;;24.10;2.10;;;;;;;18.93;52.52;99624.58;108172;1287;22528;-58
2022/07/17 10:30:26;;;;;;;1.60;0.90;;;;;;;18.98;50.94;99624.19;108209;1287;22451;-58
2022/07/17 10:32:55;;;;;;;2.80;1.10;;;;;;;19.03;49.38;99620.98;108123;1287;22520;-58
2022/07/17 10:35:22;;;;;;;1.40;1.20;;;;;;;19.07;48.99;99622.05;108139;1287;23112;-58
2022/07/17 10:37:49;;;;;;;2.00;1.10;;;;;;;19.10;49.22;99619.70;108563;1283;22303;-58
2022/07/17 10:40:19;;;;;;;2.30;1.40;;;;;;;19.15;49.16;99619.55;106568;1284;23008;-57
2022/07/17 10:42:54;;;;;;;4.80;1.10;;;;;;;19.19;48.92;99615.30;104627;1283;22593;-58
2022/07/17 10:45:44;;;;;;;3.40;1.00;;;;;;;19.22;48.81;99611.02;104555;1284;22577;-58
2022/07/17 10:48:19;;;;;;;3.20;1.80;;;;;;;19.22;48.57;99614.27;104869;1281;24584;-58
2022/07/17 10:50:48;;;;;;;4.10;1.20;;;;;;;19.21;48.89;99612.92;109075;1280;22226;-59
2022/07/17 10:53:24;;;;;;;2.70;1.30;;;;;;;19.22;49.34;99613.23;109067;1280;23176;-58
2022/07/17 10:55:58;;;;;;;2.30;1.40;;;;;;;19.25;49.80;99608.27;109006;1278;22469;-59
2022/07/17 10:58:29;;;;;;;2.40;0.90;;;;;;;19.30;49.53;99606.04;108949;1280;22415;-59
2022/07/17 11:00:57;;;;;;;1.00;0.90;;;;;;;19.36;49.22;99611.68;108932;1280;23347;-59
2022/07/17 11:03:24;;;;;;;1.30;1.00;;;;;;;19.39;48.79;99607.84;108984;1280;22477;-60
2022/07/17 11:05:51;;;;;;;1.30;1.00;;;;;;;19.44;48.73;99604.70;109205;1278;22478;-58
2022/07/17 11:08:18;;;;;;;1.10;1.00;;;;;;;19.47;48.58;99601.05;109050;1279;22587;-58
2022/07/17 11:10:45;;;;;;;1.40;1.10;;;;;;;19.49;48.77;99600.88;109106;1278;23124;-58
2022/07/17 11:13:13;;;;;;;1.00;0.90;;;;;;;19.51;48.63;99606.36;109080;1280;22436;-58
2022/07/17 11:15:41;;;;;;;1.20;0.90;;;;;;;19.52;48.42;99608.55;109142;1278;23183;-58
2022/07/17 11:18:22;;;;;;;1.90;1.00;;;;;;;19.52;48.01;99608.45;109087;1279;22330;-58
2022/07/17 11:20:57;;;;;;;1.80;0.90;;;;;;;19.50;48.22;99617.49;108962;1280;22455;-58
2022/07/17 11:23:25;;;;;;;6.70;2.60;;;;;;;19.46;48.17;99615.55;109154;1278;22517;-58
2022/07/17 11:25:55;;;;;;;2.40;2.00;;;;;;;19.38;48.08;99617.20;109130;1280;23215;-57
2022/07/17 11:28:39;;;;;;;10.90;1.00;;;;;;;19.32;48.35;99622.50;109057;1278;22545;-58
2022/07/17 11:31:21;;;;;;;1.80;1.00;;;;;;;19.29;48.90;99624.78;109060;1279;22434;-57